K7BM

Cottonwood Pass Airport

Cottonwood Pass, Colorado, USA
METAR K7BM 200648Z AUTO 28010G15KT OVC008 M07/M10 A2948 RMK AO2 PWINO
Observed Flight Rules
Feb-20 @ 06:48 UTC (40 minutes ago)
Wind Clouds
280° at 10 knots
 Gusting to 15 knots
  • Overcast at 800' AGL
Temperatures Readings
Current -7°C / 19°F
Dewpoint -10°C / 14°F
Humidity 79%
Altimeter 29.48" Hg
Pressure 998 hPa
Elevation 2995
METAR K7BM 200648Z AUTO 28010G15KT OVC008 M07/M10 A2948 RMK AO2 PWINO
Observed Flight Rules
Feb-20 @ 06:48 UTC
(40 minutes ago)
Wind
280° at 10 knots
 Gusting to 15 knots
Clouds
  • Overcast at 800' AGL
Temperature Dewpoint
-7°C / 19°F -10°C / 14°F
Humidity Altimeter Pressure
79% 29.48" Hg 998 hPa